createdAt,value
2018-01-30T00:00:19.644Z,77.60
2018-01-30T00:00:53.306Z,77.60
2018-01-30T00:01:26.989Z,77.70
2018-01-30T00:02:00.330Z,77.80
2018-01-30T00:02:34.770Z,77.50
2018-01-30T00:03:08.437Z,77.50
2018-01-30T00:03:42.680Z,77.20
2018-01-30T00:04:16.379Z,77.30
2018-01-30T00:04:50.033Z,77.10
2018-01-30T00:05:23.734Z,77.00
2018-01-30T00:05:57.402Z,77.30
2018-01-30T00:06:31.057Z,77.30
2018-01-30T00:07:04.725Z,77.40
2018-01-30T00:07:38.382Z,77.40
2018-01-30T00:08:12.048Z,77.40
2018-01-30T00:08:46.498Z,77.00
2018-01-30T00:09:20.164Z,77.00
2018-01-30T00:09:53.822Z,76.90
2018-01-30T00:10:28.274Z,77.10
2018-01-30T00:11:01.934Z,77.00
2018-01-30T00:11:36.360Z,77.30
2018-01-30T00:12:10.026Z,77.30
2018-01-30T00:12:44.474Z,77.50
2018-01-30T00:13:18.127Z,77.40
2018-01-30T00:13:52.546Z,77.10
2018-01-30T00:14:26.205Z,77.20
2018-01-30T00:14:59.866Z,77.30
2018-01-30T00:15:33.221Z,77.30
2018-01-30T00:16:06.896Z,77.20
2018-01-30T00:16:40.573Z,76.90
2018-01-30T00:17:15.013Z,76.70
2018-01-30T00:17:48.684Z,76.70
2018-01-30T00:18:22.355Z,76.80
2018-01-30T00:18:56.780Z,77.20
2018-01-30T00:19:30.885Z,77.10
2018-01-30T00:20:04.541Z,77.30
2018-01-30T00:20:38.994Z,77.40
2018-01-30T00:21:12.659Z,77.40
2018-01-30T00:21:46.325Z,77.30
2018-01-30T00:22:19.985Z,77.40
2018-01-30T00:22:53.647Z,77.50
2018-01-30T00:23:27.301Z,77.50
2018-01-30T00:24:01.409Z,77.50
2018-01-30T00:24:36.026Z,77.60
2018-01-30T00:25:09.688Z,77.60
2018-01-30T00:25:43.373Z,77.60
2018-01-30T00:26:17.022Z,77.40
2018-01-30T00:26:50.685Z,77.30
2018-01-30T00:27:24.338Z,77.30
2018-01-30T00:27:58.006Z,77.20
2018-01-30T00:28:31.787Z,76.90
2018-01-30T00:29:05.453Z,76.90
2018-01-30T00:29:39.108Z,76.80
2018-01-30T00:30:12.453Z,76.70
2018-01-30T00:30:46.262Z,76.70
2018-01-30T00:31:19.918Z,76.80
2018-01-30T00:31:53.574Z,77.00
2018-01-30T00:32:27.994Z,76.50
2018-01-30T00:33:01.661Z,76.50
2018-01-30T00:33:36.090Z,76.20
2018-01-30T00:34:09.752Z,76.20
2018-01-30T00:34:43.421Z,76.30
2018-01-30T00:35:17.076Z,76.50
2018-01-30T00:35:51.028Z,76.40
2018-01-30T00:36:24.695Z,76.60
2018-01-30T00:36:58.349Z,76.70
2018-01-30T00:37:32.009Z,76.50
2018-01-30T00:38:06.448Z,76.30
2018-01-30T00:38:40.091Z,76.30
2018-01-30T00:39:13.750Z,76.30
2018-01-30T00:39:47.414Z,76.20
2018-01-30T00:40:21.085Z,75.90
2018-01-30T00:40:54.789Z,75.70
2018-01-30T00:41:28.442Z,75.80
2018-01-30T00:42:02.901Z,76.10
2018-01-30T00:42:36.740Z,76.10
2018-01-30T00:43:10.402Z,76.30
2018-01-30T00:43:44.066Z,76.40
2018-01-30T00:44:17.736Z,76.60
2018-01-30T00:44:51.410Z,76.30
2018-01-30T00:45:25.855Z,76.50
2018-01-30T00:45:59.809Z,76.40
2018-01-30T00:46:34.257Z,76.20
2018-01-30T00:47:07.923Z,76.20
2018-01-30T00:47:41.586Z,76.40
2018-01-30T00:48:15.262Z,76.40
2018-01-30T00:48:48.926Z,76.50
2018-01-30T00:49:22.590Z,76.70
2018-01-30T00:49:56.234Z,76.70
2018-01-30T00:50:29.879Z,77.00
2018-01-30T00:51:03.571Z,76.80
2018-01-30T00:51:37.222Z,77.00
2018-01-30T00:52:11.654Z,77.10
2018-01-30T00:52:45.308Z,77.00
2018-01-30T00:53:18.968Z,76.90
2018-01-30T00:53:52.625Z,76.90
2018-01-30T00:54:26.275Z,76.90
2018-01-30T00:54:59.934Z,77.20
2018-01-30T00:55:33.581Z,77.30
2018-01-30T00:56:07.279Z,76.80
2018-01-30T00:56:40.940Z,76.80
2018-01-30T00:57:15.373Z,77.00
2018-01-30T00:57:49.037Z,77.00
2018-01-30T00:58:23.459Z,76.80
2018-01-30T00:58:57.113Z,76.70
2018-01-30T00:59:30.766Z,77.50
2018-01-30T01:00:03.775Z,76.90
2018-01-30T01:00:37.438Z,77.00
2018-01-30T01:01:11.133Z,77.00
2018-01-30T01:01:44.790Z,76.80
2018-01-30T01:02:18.468Z,76.70
2018-01-30T01:02:52.933Z,76.10
2018-01-30T01:03:26.584Z,76.00
2018-01-30T01:04:00.251Z,75.90
2018-01-30T01:04:34.693Z,76.30
2018-01-30T01:05:08.361Z,76.90
2018-01-30T01:05:42.042Z,76.10
2018-01-30T01:06:15.732Z,76.10
2018-01-30T01:06:49.392Z,76.30
2018-01-30T01:07:23.813Z,76.30
2018-01-30T01:07:58.240Z,76.40
2018-01-30T01:08:31.906Z,76.40
2018-01-30T01:09:06.003Z,76.50
2018-01-30T01:09:40.438Z,76.70
2018-01-30T01:10:14.098Z,76.70
2018-01-30T01:10:47.749Z,76.70
2018-01-30T01:11:21.438Z,76.90
2018-01-30T01:11:55.120Z,77.00
2018-01-30T01:12:28.795Z,76.70
2018-01-30T01:13:02.474Z,76.60
2018-01-30T01:13:36.125Z,76.70
2018-01-30T01:14:09.794Z,76.80
2018-01-30T01:14:43.476Z,76.90
2018-01-30T01:15:17.142Z,76.90
2018-01-30T01:15:50.922Z,77.00
2018-01-30T01:16:24.857Z,77.10
2018-01-30T01:16:58.208Z,77.10
2018-01-30T01:17:31.880Z,77.20
2018-01-30T01:18:06.326Z,77.40
2018-01-30T01:18:39.978Z,77.30
2018-01-30T01:19:13.643Z,77.40
2018-01-30T01:19:47.312Z,77.00
2018-01-30T01:20:20.990Z,77.60
2018-01-30T01:20:54.660Z,77.30
2018-01-30T01:21:28.369Z,77.30
2018-01-30T01:22:02.049Z,77.20
2018-01-30T01:22:35.710Z,77.10
2018-01-30T01:23:09.372Z,77.30
2018-01-30T01:23:43.792Z,77.10
2018-01-30T01:24:17.557Z,76.70
2018-01-30T01:24:51.236Z,76.70
2018-01-30T01:25:24.974Z,77.10
2018-01-30T01:25:58.626Z,76.90
2018-01-30T01:26:32.310Z,76.70
2018-01-30T01:27:05.976Z,76.70
2018-01-30T01:27:39.642Z,77.00
2018-01-30T01:28:13.299Z,77.00
2018-01-30T01:28:46.948Z,76.80
2018-01-30T01:29:20.613Z,76.90
2018-01-30T01:29:54.293Z,76.80
2018-01-30T01:30:27.941Z,77.00
2018-01-30T01:31:01.273Z,76.80
2018-01-30T01:31:34.954Z,76.70
2018-01-30T01:32:08.601Z,76.70
2018-01-30T01:32:42.257Z,76.70
2018-01-30T01:33:15.906Z,76.70
2018-01-30T01:33:50.333Z,76.60
2018-01-30T01:34:24.004Z,76.50
2018-01-30T01:34:58.429Z,76.50
2018-01-30T01:35:32.098Z,76.50
2018-01-30T01:36:06.527Z,76.90
2018-01-30T01:36:40.200Z,76.90
2018-01-30T01:37:14.452Z,76.70
2018-01-30T01:37:48.102Z,76.70
2018-01-30T01:38:21.776Z,76.80
2018-01-30T01:38:56.199Z,76.70
2018-01-30T01:39:29.871Z,76.70
2018-01-30T01:40:04.382Z,76.70
2018-01-30T01:40:38.818Z,76.80
2018-01-30T01:41:12.486Z,76.80
2018-01-30T01:41:46.934Z,76.40
2018-01-30T01:42:20.593Z,76.40
2018-01-30T01:42:54.251Z,76.50
2018-01-30T01:43:27.908Z,76.40
2018-01-30T01:44:01.633Z,76.40
2018-01-30T01:44:36.048Z,76.70
2018-01-30T01:45:10.461Z,76.30
2018-01-30T01:45:44.878Z,76.50
2018-01-30T01:46:19.297Z,76.30
2018-01-30T01:46:53.025Z,76.30
2018-01-30T01:47:26.363Z,76.20
2018-01-30T01:48:00.034Z,76.30
2018-01-30T01:48:34.477Z,76.30
2018-01-30T01:49:08.130Z,76.30
2018-01-30T01:49:42.554Z,76.30
2018-01-30T01:50:16.228Z,76.20
2018-01-30T01:50:50.658Z,76.00
2018-01-30T01:51:24.302Z,76.00
2018-01-30T01:51:58.573Z,75.60
2018-01-30T01:52:32.242Z,75.60
2018-01-30T01:53:05.915Z,75.60
2018-01-30T01:53:39.576Z,75.70
2018-01-30T01:54:14.006Z,75.70
2018-01-30T01:54:48.454Z,75.50
2018-01-30T01:55:22.132Z,75.50
2018-01-30T01:55:55.790Z,75.40
2018-01-30T01:56:30.239Z,75.70
2018-01-30T01:57:03.930Z,75.70
2018-01-30T01:57:37.599Z,75.70
2018-01-30T01:58:11.276Z,76.00
2018-01-30T01:58:45.873Z,76.60
2018-01-30T01:59:20.295Z,75.90
2018-01-30T01:59:53.965Z,75.90
2018-01-30T02:00:28.390Z,75.60
2018-01-30T02:01:02.059Z,75.60
2018-01-30T02:01:35.723Z,75.70
2018-01-30T02:02:09.413Z,75.90
2018-01-30T02:02:43.066Z,75.90
2018-01-30T02:03:16.731Z,76.10
2018-01-30T02:03:51.141Z,76.10
2018-01-30T02:04:25.572Z,76.30
2018-01-30T02:04:59.219Z,76.30
2018-01-30T02:05:32.883Z,76.20
2018-01-30T02:06:06.562Z,76.70
2018-01-30T02:06:40.240Z,76.10
2018-01-30T02:07:14.304Z,76.30
2018-01-30T02:07:48.745Z,75.90
2018-01-30T02:08:22.401Z,75.80
2018-01-30T02:08:56.828Z,76.00
2018-01-30T02:09:30.497Z,76.00
2018-01-30T02:10:04.687Z,75.70
2018-01-30T02:10:39.115Z,75.60
2018-01-30T02:11:12.778Z,75.60
2018-01-30T02:11:46.424Z,75.70
2018-01-30T02:12:20.486Z,75.50
2018-01-30T02:12:54.924Z,75.40
2018-01-30T02:13:28.582Z,75.40
2018-01-30T02:14:03.017Z,75.50
2018-01-30T02:14:36.700Z,75.50
2018-01-30T02:15:10.364Z,75.30
2018-01-30T02:15:44.798Z,75.20
2018-01-30T02:16:18.456Z,75.20
2018-01-30T02:16:52.878Z,75.40
2018-01-30T02:17:26.578Z,75.30
2018-01-30T02:18:00.247Z,75.80
2018-01-30T02:18:34.697Z,75.00
2018-01-30T02:19:08.369Z,75.00
2018-01-30T02:19:42.016Z,75.10
2018-01-30T02:20:16.110Z,75.00
2018-01-30T02:20:49.774Z,75.00
2018-01-30T02:21:23.439Z,75.30
2018-01-30T02:21:57.093Z,75.00
2018-01-30T02:22:31.559Z,75.30
2018-01-30T02:23:04.886Z,75.20
2018-01-30T02:23:39.310Z,75.30
2018-01-30T02:24:12.978Z,75.30
2018-01-30T02:24:47.414Z,75.30
2018-01-30T02:25:21.074Z,75.30
2018-01-30T02:25:55.538Z,75.50
2018-01-30T02:26:29.206Z,75.50
2018-01-30T02:27:02.861Z,75.40
2018-01-30T02:27:37.319Z,75.30
2018-01-30T02:28:11.020Z,75.30
2018-01-30T02:28:44.681Z,75.40
2018-01-30T02:29:18.352Z,75.40
2018-01-30T02:29:52.017Z,75.40
2018-01-30T02:30:26.442Z,75.50
2018-01-30T02:31:00.945Z,75.50
2018-01-30T02:31:35.373Z,75.60
2018-01-30T02:32:08.703Z,75.60
2018-01-30T02:32:42.407Z,75.60
2018-01-30T02:33:16.069Z,75.60
2018-01-30T02:33:49.729Z,75.60
2018-01-30T02:34:23.394Z,75.30
2018-01-30T02:34:57.817Z,75.20
2018-01-30T02:35:31.476Z,75.20
2018-01-30T02:36:05.898Z,75.40
2018-01-30T02:36:40.316Z,75.40
2018-01-30T02:37:14.032Z,75.40
2018-01-30T02:37:47.729Z,75.50
2018-01-30T02:38:21.399Z,75.00
2018-01-30T02:38:55.062Z,75.00
2018-01-30T02:39:29.502Z,75.20
2018-01-30T02:40:03.161Z,75.20
2018-01-30T02:40:37.270Z,75.30
2018-01-30T02:41:10.936Z,75.30
2018-01-30T02:41:45.372Z,75.80
2018-01-30T02:42:19.037Z,75.40
2018-01-30T02:42:53.482Z,75.50
2018-01-30T02:43:27.138Z,75.50
2018-01-30T02:44:01.578Z,75.30
2018-01-30T02:44:35.236Z,75.30
2018-01-30T02:45:09.676Z,75.50
2018-01-30T02:45:43.348Z,75.50
2018-01-30T02:46:17.012Z,75.50
2018-01-30T02:46:50.690Z,75.00
2018-01-30T02:47:24.359Z,74.90
2018-01-30T02:47:58.038Z,75.20
2018-01-30T02:48:31.031Z,75.30
2018-01-30T02:49:04.705Z,75.40
2018-01-30T02:49:38.033Z,75.50
2018-01-30T02:50:12.471Z,75.80
2018-01-30T02:50:45.802Z,75.80
2018-01-30T02:51:19.474Z,75.80
2018-01-30T02:51:53.130Z,75.60
2018-01-30T02:52:26.789Z,75.70
2018-01-30T02:53:01.225Z,75.90
2018-01-30T02:53:34.884Z,75.90
2018-01-30T02:54:09.316Z,76.20
2018-01-30T02:54:42.982Z,76.20
2018-01-30T02:55:17.430Z,76.40
2018-01-30T02:55:51.108Z,76.30
2018-01-30T02:56:24.780Z,76.10
2018-01-30T02:56:58.463Z,76.40
2018-01-30T02:57:32.910Z,76.40
2018-01-30T02:58:06.618Z,76.30
2018-01-30T02:58:40.284Z,76.40
2018-01-30T02:59:13.952Z,76.70
2018-01-30T02:59:47.629Z,76.70
2018-01-30T03:00:22.102Z,76.70
2018-01-30T03:00:55.750Z,76.70
2018-01-30T03:01:29.402Z,76.70
2018-01-30T03:02:03.058Z,76.90
2018-01-30T03:02:36.767Z,77.20
2018-01-30T03:03:10.442Z,77.10
2018-01-30T03:03:44.096Z,77.00
2018-01-30T03:04:17.765Z,77.20
2018-01-30T03:04:52.193Z,77.00
2018-01-30T03:05:25.870Z,77.00
2018-01-30T03:05:59.544Z,77.20
2018-01-30T03:06:34.012Z,77.30
2018-01-30T03:07:07.670Z,77.30
2018-01-30T03:07:41.329Z,77.00
2018-01-30T03:08:16.009Z,76.70
2018-01-30T03:08:49.675Z,76.70
2018-01-30T03:09:23.350Z,76.90
2018-01-30T03:09:57.002Z,76.80
2018-01-30T03:10:30.658Z,76.60
2018-01-30T03:11:04.386Z,76.70
2018-01-30T03:11:38.835Z,76.70
2018-01-30T03:12:12.486Z,76.60
2018-01-30T03:12:46.923Z,76.00
2018-01-30T03:13:20.614Z,76.00
2018-01-30T03:13:54.266Z,76.10
2018-01-30T03:14:27.922Z,76.10
2018-01-30T03:15:01.578Z,76.30
2018-01-30T03:15:35.242Z,76.20
2018-01-30T03:16:09.684Z,75.80
2018-01-30T03:16:43.373Z,75.80
2018-01-30T03:17:17.038Z,75.70
2018-01-30T03:17:51.475Z,76.00
2018-01-30T03:18:25.534Z,76.00
2018-01-30T03:18:59.965Z,75.80
2018-01-30T03:19:33.639Z,75.80
2018-01-30T03:20:07.302Z,75.80
2018-01-30T03:20:40.962Z,75.80
2018-01-30T03:21:14.689Z,75.90
2018-01-30T03:21:48.369Z,76.00
2018-01-30T03:22:22.059Z,76.00
2018-01-30T03:22:55.740Z,76.10
2018-01-30T03:23:29.725Z,76.60
2018-01-30T03:24:03.381Z,76.00
2018-01-30T03:24:37.038Z,76.10
2018-01-30T03:25:11.488Z,76.40
2018-01-30T03:25:45.159Z,76.40
2018-01-30T03:26:18.823Z,76.60
2018-01-30T03:26:53.260Z,76.20
2018-01-30T03:27:26.918Z,76.10
2018-01-30T03:28:01.470Z,76.00
2018-01-30T03:28:35.177Z,75.80
2018-01-30T03:29:08.220Z,75.90
2018-01-30T03:29:41.886Z,76.00
2018-01-30T03:30:16.310Z,76.00
2018-01-30T03:30:49.979Z,75.90
2018-01-30T03:31:24.402Z,76.10
2018-01-30T03:31:58.838Z,75.90
2018-01-30T03:32:32.509Z,75.90
2018-01-30T03:33:06.166Z,75.80
2018-01-30T03:33:40.882Z,75.40
2018-01-30T03:34:14.542Z,75.20
2018-01-30T03:34:48.206Z,75.20
2018-01-30T03:35:21.856Z,75.20
2018-01-30T03:35:56.301Z,75.20
2018-01-30T03:36:29.972Z,75.20
2018-01-30T03:37:03.745Z,75.00
2018-01-30T03:37:37.410Z,75.20
2018-01-30T03:38:11.066Z,75.40
2018-01-30T03:38:45.038Z,75.50
2018-01-30T03:39:19.450Z,75.50
2018-01-30T03:39:53.102Z,75.50
2018-01-30T03:40:26.769Z,75.60
2018-01-30T03:41:00.432Z,75.60
2018-01-30T03:41:34.098Z,75.80
2018-01-30T03:42:07.768Z,75.80
2018-01-30T03:42:41.094Z,75.90
2018-01-30T03:43:14.757Z,76.10
2018-01-30T03:43:48.837Z,76.00
2018-01-30T03:44:22.504Z,76.00
2018-01-30T03:44:56.169Z,76.10
2018-01-30T03:45:29.836Z,75.70
2018-01-30T03:46:03.484Z,75.80
2018-01-30T03:46:37.138Z,76.00
2018-01-30T03:47:10.799Z,76.20
2018-01-30T03:47:44.893Z,76.40
2018-01-30T03:48:18.601Z,76.30
2018-01-30T03:48:52.281Z,76.40
2018-01-30T03:49:25.961Z,76.40
2018-01-30T03:50:00.608Z,76.50
2018-01-30T03:50:34.266Z,76.40
2018-01-30T03:51:07.928Z,76.00
2018-01-30T03:51:41.574Z,75.30
2018-01-30T03:52:15.429Z,75.30
2018-01-30T03:52:49.861Z,74.90
2018-01-30T03:53:23.512Z,74.80
2018-01-30T03:53:57.969Z,74.80
2018-01-30T03:54:31.622Z,74.80
2018-01-30T03:55:06.054Z,75.10
2018-01-30T03:55:39.782Z,75.10
2018-01-30T03:56:13.438Z,75.30
2018-01-30T03:56:47.097Z,75.40
2018-01-30T03:57:21.513Z,75.30
2018-01-30T03:57:55.169Z,75.30
2018-01-30T03:58:28.178Z,75.30
2018-01-30T03:59:01.865Z,75.50
2018-01-30T03:59:36.286Z,75.90
2018-01-30T04:00:09.958Z,75.90
2018-01-30T04:00:44.390Z,75.90
2018-01-30T04:01:18.050Z,75.90
2018-01-30T04:01:52.552Z,76.10
2018-01-30T04:02:26.973Z,76.40
2018-01-30T04:03:00.314Z,76.40
2018-01-30T04:03:33.974Z,76.60
2018-01-30T04:04:07.664Z,76.50
2018-01-30T04:04:41.318Z,76.50
2018-01-30T04:05:15.418Z,76.60
2018-01-30T04:05:49.860Z,76.60
2018-01-30T04:06:23.513Z,76.70
2018-01-30T04:06:57.186Z,76.50
2018-01-30T04:07:30.178Z,76.50
2018-01-30T04:08:04.606Z,76.90
2018-01-30T04:08:38.270Z,76.90
2018-01-30T04:09:12.705Z,77.00
2018-01-30T04:09:46.366Z,77.00
2018-01-30T04:10:20.793Z,77.00
2018-01-30T04:10:54.463Z,77.00
2018-01-30T04:11:28.880Z,76.50
2018-01-30T04:12:03.298Z,76.30
2018-01-30T04:12:36.630Z,76.30
2018-01-30T04:13:10.286Z,76.20
2018-01-30T04:13:43.941Z,76.30
2018-01-30T04:14:18.385Z,76.00
2018-01-30T04:14:52.041Z,76.10
2018-01-30T04:15:25.716Z,75.90
2018-01-30T04:16:00.145Z,75.80
2018-01-30T04:16:33.814Z,75.70
2018-01-30T04:17:08.233Z,75.90
2018-01-30T04:17:42.663Z,76.00
2018-01-30T04:18:16.533Z,76.00
2018-01-30T04:18:50.961Z,76.10
2018-01-30T04:19:24.325Z,76.10
2018-01-30T04:19:57.982Z,76.00
2018-01-30T04:20:31.642Z,76.00
2018-01-30T04:21:04.988Z,76.00
2018-01-30T04:21:38.633Z,76.00
2018-01-30T04:22:12.298Z,76.00
2018-01-30T04:22:45.966Z,75.90
2018-01-30T04:23:19.634Z,75.60
2018-01-30T04:23:54.074Z,75.50
2018-01-30T04:24:27.749Z,75.50
2018-01-30T04:25:01.443Z,75.50
2018-01-30T04:25:35.104Z,75.60
2018-01-30T04:26:09.521Z,75.60
2018-01-30T04:26:43.960Z,75.50
2018-01-30T04:27:17.636Z,75.50
2018-01-30T04:27:51.315Z,75.30
2018-01-30T04:28:24.986Z,75.00
2018-01-30T04:28:59.420Z,75.10
2018-01-30T04:29:33.119Z,75.10
2018-01-30T04:30:06.120Z,75.10
2018-01-30T04:30:39.771Z,75.30
2018-01-30T04:31:13.442Z,75.30
2018-01-30T04:31:47.859Z,75.40
2018-01-30T04:32:21.509Z,75.40
2018-01-30T04:32:55.162Z,75.50
2018-01-30T04:33:28.817Z,75.50
2018-01-30T04:34:03.258Z,75.40
2018-01-30T04:34:37.318Z,75.20
2018-01-30T04:35:11.753Z,75.30
2018-01-30T04:35:45.418Z,75.20
2018-01-30T04:36:19.841Z,75.00
2018-01-30T04:36:53.514Z,75.00
2018-01-30T04:37:27.943Z,75.30
2018-01-30T04:38:00.949Z,75.10
2018-01-30T04:38:34.626Z,75.10
2018-01-30T04:39:08.310Z,75.10
2018-01-30T04:39:41.993Z,75.00
2018-01-30T04:40:15.654Z,74.90
2018-01-30T04:40:49.757Z,74.90
2018-01-30T04:41:24.194Z,75.20
2018-01-30T04:41:57.852Z,75.10
2018-01-30T04:42:32.277Z,75.30
2018-01-30T04:43:05.939Z,75.10
2018-01-30T04:43:40.377Z,75.20
2018-01-30T04:44:14.047Z,75.10
2018-01-30T04:44:48.315Z,75.10
2018-01-30T04:45:21.985Z,75.10
2018-01-30T04:45:55.682Z,75.10
2018-01-30T04:46:29.351Z,75.10
2018-01-30T04:47:03.017Z,75.20
2018-01-30T04:47:36.696Z,75.40
2018-01-30T04:48:10.462Z,75.60
2018-01-30T04:48:44.128Z,75.60
2018-01-30T04:49:17.797Z,75.70
2018-01-30T04:49:51.482Z,75.70
2018-01-30T04:50:25.149Z,75.60
2018-01-30T04:50:59.577Z,75.30
2018-01-30T04:51:33.240Z,75.30
2018-01-30T04:52:07.664Z,75.10
2018-01-30T04:52:41.339Z,75.00
2018-01-30T04:53:15.773Z,75.10
2018-01-30T04:53:49.101Z,75.00
2018-01-30T04:54:22.782Z,75.10
2018-01-30T04:54:56.473Z,75.00
2018-01-30T04:55:30.126Z,74.70
2018-01-30T04:56:03.785Z,74.80
2018-01-30T04:56:38.225Z,75.50
2018-01-30T04:57:11.902Z,74.90
2018-01-30T04:57:45.566Z,74.90
2018-01-30T04:58:19.977Z,74.70
2018-01-30T04:58:54.402Z,74.80
2018-01-30T04:59:27.406Z,74.70
2018-01-30T05:00:01.038Z,74.90
2018-01-30T05:00:34.802Z,74.50
2018-01-30T05:01:08.458Z,75.10
2018-01-30T05:01:42.135Z,75.00
2018-01-30T05:02:15.803Z,75.00
2018-01-30T05:02:50.235Z,75.20
2018-01-30T05:03:23.906Z,75.20
2018-01-30T05:03:58.330Z,75.20
2018-01-30T05:04:31.990Z,75.20
2018-01-30T05:05:06.449Z,75.40
2018-01-30T05:05:40.126Z,75.20
2018-01-30T05:06:13.788Z,75.00
2018-01-30T05:06:48.218Z,74.70
2018-01-30T05:07:21.887Z,74.60
2018-01-30T05:07:55.549Z,74.70
2018-01-30T05:08:29.210Z,74.80
2018-01-30T05:09:02.696Z,75.00
2018-01-30T05:09:36.366Z,74.50
2018-01-30T05:10:10.433Z,74.50
2018-01-30T05:10:44.528Z,74.70
2018-01-30T05:11:19.094Z,74.60
2018-01-30T05:11:52.757Z,74.50
2018-01-30T05:12:26.422Z,74.40
2018-01-30T05:13:00.857Z,74.60
2018-01-30T05:13:34.512Z,74.40
2018-01-30T05:14:08.946Z,74.70
2018-01-30T05:14:42.706Z,74.60
2018-01-30T05:15:16.839Z,74.40
2018-01-30T05:15:50.494Z,74.40
2018-01-30T05:16:24.920Z,74.40
2018-01-30T05:16:58.582Z,74.40
2018-01-30T05:17:32.252Z,74.40
2018-01-30T05:18:05.927Z,74.40
2018-01-30T05:18:39.598Z,74.60
2018-01-30T05:19:13.216Z,74.60
2018-01-30T05:19:46.899Z,74.70
2018-01-30T05:20:20.756Z,74.80
2018-01-30T05:20:54.422Z,74.80
2018-01-30T05:21:28.842Z,75.30
2018-01-30T05:22:02.529Z,74.70
2018-01-30T05:22:36.647Z,74.80
2018-01-30T05:23:10.323Z,74.70
2018-01-30T05:23:43.997Z,75.00
2018-01-30T05:24:17.333Z,75.00
2018-01-30T05:24:51.002Z,75.60
2018-01-30T05:25:24.510Z,74.90
2018-01-30T05:25:58.182Z,75.10
2018-01-30T05:26:31.848Z,75.00
2018-01-30T05:27:06.266Z,75.10
2018-01-30T05:27:39.954Z,75.10
2018-01-30T05:28:13.624Z,75.10
2018-01-30T05:28:47.306Z,75.00
2018-01-30T05:29:20.967Z,75.00
2018-01-30T05:29:54.640Z,75.10
2018-01-30T05:30:28.329Z,75.10
2018-01-30T05:31:01.993Z,75.20
2018-01-30T05:31:35.664Z,75.40
2018-01-30T05:32:09.345Z,75.60
2018-01-30T05:32:43.774Z,75.80
2018-01-30T05:33:17.543Z,75.80
2018-01-30T05:33:51.218Z,75.80
2018-01-30T05:34:24.891Z,75.30
2018-01-30T05:34:58.546Z,75.90
2018-01-30T05:35:32.230Z,76.00
2018-01-30T05:36:05.877Z,76.00
2018-01-30T05:36:39.530Z,76.10
2018-01-30T05:37:13.195Z,76.10
2018-01-30T05:37:46.856Z,76.10
2018-01-30T05:38:20.525Z,76.10
2018-01-30T05:38:54.199Z,76.10
2018-01-30T05:39:30.010Z,76.20
2018-01-30T05:40:03.682Z,76.20
2018-01-30T05:40:37.386Z,76.20
2018-01-30T05:41:11.054Z,76.40
2018-01-30T05:41:45.490Z,76.20
2018-01-30T05:42:19.162Z,76.20
2018-01-30T05:42:52.831Z,76.20
2018-01-30T05:43:26.499Z,76.20
2018-01-30T05:44:00.162Z,76.80
2018-01-30T05:44:33.820Z,76.20
2018-01-30T05:45:07.487Z,76.40
2018-01-30T05:45:41.589Z,76.50
2018-01-30T05:46:16.024Z,76.90
2018-01-30T05:46:49.709Z,76.60
2018-01-30T05:47:23.371Z,76.40
2018-01-30T05:47:57.022Z,76.30
2018-01-30T05:48:30.685Z,76.40
2018-01-30T05:49:04.352Z,76.40
2018-01-30T05:49:38.782Z,76.50
2018-01-30T05:50:12.455Z,76.50
2018-01-30T05:50:46.898Z,76.30
2018-01-30T05:51:20.561Z,76.30
2018-01-30T05:51:54.247Z,76.30
2018-01-30T05:52:28.861Z,76.30
2018-01-30T05:53:02.526Z,76.20
2018-01-30T05:53:36.960Z,76.10
2018-01-30T05:54:10.614Z,76.10
2018-01-30T05:54:43.960Z,76.10
2018-01-30T05:55:17.627Z,76.70
2018-01-30T05:55:51.589Z,76.10
2018-01-30T05:56:26.056Z,76.20
2018-01-30T05:56:59.705Z,76.10
2018-01-30T05:57:34.127Z,75.80
2018-01-30T05:58:07.799Z,75.80
2018-01-30T05:58:42.220Z,75.90
2018-01-30T05:59:15.888Z,75.90
2018-01-30T05:59:50.328Z,75.80
2018-01-30T06:00:23.996Z,75.80
2018-01-30T06:00:57.690Z,75.70
2018-01-30T06:01:31.171Z,75.50
2018-01-30T06:02:05.606Z,75.90
2018-01-30T06:02:39.281Z,75.90
2018-01-30T06:03:12.963Z,76.00
2018-01-30T06:03:46.635Z,75.90
2018-01-30T06:04:21.075Z,76.00
2018-01-30T06:04:54.734Z,76.00
2018-01-30T06:05:29.162Z,76.80
2018-01-30T06:06:02.839Z,76.20
2018-01-30T06:06:36.506Z,76.30
2018-01-30T06:07:09.840Z,76.20
2018-01-30T06:07:43.502Z,76.60
2018-01-30T06:08:17.936Z,76.00
2018-01-30T06:08:50.952Z,76.00
2018-01-30T06:09:24.610Z,76.00
2018-01-30T06:09:58.264Z,76.00
2018-01-30T06:10:31.917Z,76.20
2018-01-30T06:11:05.271Z,76.60
2018-01-30T06:11:38.945Z,76.60
2018-01-30T06:12:12.601Z,76.60
2018-01-30T06:12:47.035Z,76.60
2018-01-30T06:13:20.758Z,76.50
2018-01-30T06:13:55.353Z,76.40
2018-01-30T06:14:29.031Z,76.40
2018-01-30T06:15:02.699Z,76.50
2018-01-30T06:15:36.385Z,76.60
2018-01-30T06:16:11.194Z,76.70
2018-01-30T06:16:45.617Z,76.80
2018-01-30T06:17:19.298Z,76.80
2018-01-30T06:17:52.965Z,77.00
2018-01-30T06:18:26.613Z,77.10
2018-01-30T06:19:00.284Z,76.80
2018-01-30T06:19:33.963Z,76.80
2018-01-30T06:20:07.618Z,76.90
2018-01-30T06:20:41.270Z,77.00
2018-01-30T06:21:15.214Z,77.00
2018-01-30T06:21:49.638Z,76.90
2018-01-30T06:22:23.404Z,76.90
2018-01-30T06:22:57.078Z,77.00
2018-01-30T06:23:31.532Z,77.70
2018-01-30T06:24:05.191Z,77.20
2018-01-30T06:24:39.177Z,77.20
2018-01-30T06:25:12.851Z,77.00
2018-01-30T06:25:46.522Z,77.30
2018-01-30T06:26:20.239Z,77.20
2018-01-30T06:26:53.898Z,77.30
2018-01-30T06:27:27.585Z,77.40
2018-01-30T06:28:01.370Z,77.20
2018-01-30T06:28:35.046Z,77.10
2018-01-30T06:29:08.382Z,77.30
2018-01-30T06:29:42.054Z,77.30
2018-01-30T06:30:15.738Z,77.20
2018-01-30T06:30:49.396Z,77.70
2018-01-30T06:31:23.859Z,77.40
2018-01-30T06:31:57.521Z,77.50
2018-01-30T06:32:31.201Z,77.50
2018-01-30T06:33:04.861Z,77.50
2018-01-30T06:33:39.280Z,77.60
2018-01-30T06:34:12.933Z,77.60
2018-01-30T06:34:46.606Z,77.70
2018-01-30T06:35:20.267Z,77.70
2018-01-30T06:35:53.934Z,77.80
2018-01-30T06:36:27.619Z,77.90
2018-01-30T06:37:02.051Z,78.10
2018-01-30T06:37:35.717Z,78.10
2018-01-30T06:38:10.165Z,78.30
2018-01-30T06:38:43.838Z,78.30
2018-01-30T06:39:17.502Z,78.30
2018-01-30T06:39:51.791Z,78.40
2018-01-30T06:40:26.227Z,78.30
2018-01-30T06:40:59.886Z,78.50
2018-01-30T06:41:34.346Z,78.60
2018-01-30T06:42:08.014Z,78.60
2018-01-30T06:42:41.686Z,78.60
2018-01-30T06:43:16.129Z,78.70
2018-01-30T06:43:49.785Z,78.70
2018-01-30T06:44:24.228Z,78.80
2018-01-30T06:44:57.888Z,78.80
2018-01-30T06:45:31.542Z,78.80
2018-01-30T06:46:05.221Z,78.90
2018-01-30T06:46:38.910Z,79.00
2018-01-30T06:47:12.574Z,78.90
2018-01-30T06:47:46.226Z,78.70
2018-01-30T06:48:20.668Z,79.00
2018-01-30T06:48:54.339Z,79.00
2018-01-30T06:49:28.004Z,79.00
2018-01-30T06:50:02.517Z,79.50
2018-01-30T06:50:36.953Z,79.20
2018-01-30T06:51:10.445Z,79.20
2018-01-30T06:51:44.187Z,78.90
2018-01-30T06:52:17.518Z,79.00
2018-01-30T06:52:51.176Z,78.80
2018-01-30T06:53:25.616Z,78.90
2018-01-30T06:53:59.279Z,78.90
2018-01-30T06:54:33.714Z,78.80
2018-01-30T06:55:07.048Z,78.80
2018-01-30T06:55:40.717Z,78.80
2018-01-30T06:56:14.403Z,78.80
2018-01-30T06:56:48.085Z,78.80
2018-01-30T06:57:21.785Z,78.80
2018-01-30T06:57:54.824Z,78.90
2018-01-30T06:58:28.474Z,79.10
2018-01-30T06:59:02.912Z,79.00
2018-01-30T06:59:36.410Z,78.90
2018-01-30T07:00:09.411Z,78.90
2018-01-30T07:00:43.076Z,79.00
2018-01-30T07:01:16.742Z,78.90
2018-01-30T07:01:50.445Z,78.90
2018-01-30T07:02:23.797Z,79.10
2018-01-30T07:02:58.226Z,78.60
2018-01-30T07:03:31.886Z,78.60
2018-01-30T07:04:05.552Z,78.40
2018-01-30T07:04:39.206Z,78.40
2018-01-30T07:05:12.861Z,78.50
2018-01-30T07:05:47.301Z,78.10
2018-01-30T07:06:20.961Z,78.00
2018-01-30T07:06:55.430Z,78.20
2018-01-30T07:07:29.090Z,78.20
2018-01-30T07:08:02.763Z,78.10
2018-01-30T07:08:36.426Z,78.10
2018-01-30T07:09:10.882Z,78.30
2018-01-30T07:09:44.576Z,78.20
2018-01-30T07:10:18.242Z,78.30
2018-01-30T07:10:51.900Z,78.20
2018-01-30T07:11:25.663Z,78.20
2018-01-30T07:11:59.368Z,78.50
2018-01-30T07:12:33.032Z,78.40
2018-01-30T07:13:06.705Z,78.20
2018-01-30T07:13:40.390Z,78.00
2018-01-30T07:14:14.040Z,77.90
2018-01-30T07:14:48.487Z,78.00
2018-01-30T07:15:22.189Z,78.00
2018-01-30T07:15:55.867Z,78.00